createdAt,value
2023-04-06T00:00:34.366Z,88.84
2023-04-06T00:03:01.016Z,89.56
2023-04-06T00:05:28.701Z,88.54
2023-04-06T00:07:56.844Z,88.53
2023-04-06T00:10:23.234Z,89.00
2023-04-06T00:12:49.686Z,89.32
2023-04-06T00:15:16.447Z,88.83
2023-04-06T00:17:42.908Z,89.91
2023-04-06T00:20:09.919Z,88.49
2023-04-06T00:22:36.567Z,89.01
2023-04-06T00:25:03.145Z,89.71
2023-04-06T00:27:29.625Z,88.69
2023-04-06T00:29:56.295Z,88.93
2023-04-06T00:32:22.740Z,89.34
2023-04-06T00:34:49.229Z,90.48
2023-04-06T00:37:15.784Z,90.14
2023-04-06T00:39:42.356Z,90.22
2023-04-06T00:42:13.859Z,89.94
2023-04-06T00:44:41.862Z,89.74
2023-04-06T00:47:08.642Z,89.56
2023-04-06T00:49:35.126Z,89.66
2023-04-06T00:52:02.391Z,89.53
2023-04-06T00:54:31.538Z,90.15
2023-04-06T00:56:58.219Z,91.00
2023-04-06T00:59:24.770Z,90.30
2023-04-06T01:01:51.407Z,89.33
2023-04-06T01:04:17.966Z,90.55
2023-04-06T01:06:44.408Z,90.83
2023-04-06T01:09:11.030Z,90.92
2023-04-06T01:11:37.628Z,90.88
2023-04-06T01:14:04.573Z,90.91
2023-04-06T01:16:31.384Z,91.72
2023-04-06T01:18:57.962Z,91.58
2023-04-06T01:21:24.500Z,91.69
2023-04-06T01:23:50.989Z,91.37
2023-04-06T01:26:17.645Z,90.48
2023-04-06T01:28:45.224Z,90.92
2023-04-06T01:31:12.688Z,91.04
2023-04-06T01:33:39.170Z,90.32
2023-04-06T01:36:06.153Z,90.29
2023-04-06T01:38:32.682Z,91.38
2023-04-06T01:40:59.220Z,91.20
2023-04-06T01:43:25.670Z,91.75
2023-04-06T01:45:52.158Z,91.90
2023-04-06T01:48:18.678Z,90.96
2023-04-06T01:50:45.094Z,91.20
2023-04-06T01:53:11.644Z,91.71
2023-04-06T01:55:38.123Z,91.87
2023-04-06T01:58:04.585Z,92.51
2023-04-06T02:00:31.269Z,92.31
2023-04-06T02:02:57.851Z,92.46
2023-04-06T02:05:24.311Z,91.94
2023-04-06T02:07:50.725Z,92.97
2023-04-06T02:10:17.227Z,92.64
2023-04-06T02:12:43.661Z,92.29
2023-04-06T02:15:10.672Z,93.26
2023-04-06T02:17:37.220Z,93.17
2023-04-06T02:20:03.900Z,93.48
2023-04-06T02:22:30.545Z,92.84
2023-04-06T02:24:56.978Z,92.58
2023-04-06T02:27:23.488Z,93.39
2023-04-06T02:29:49.968Z,93.70
2023-04-06T02:32:16.463Z,93.58
2023-04-06T02:34:42.860Z,92.87
2023-04-06T02:37:09.319Z,92.86
2023-04-06T02:39:35.980Z,92.82
2023-04-06T02:42:02.444Z,92.33
2023-04-06T02:44:28.861Z,93.07
2023-04-06T02:46:55.422Z,92.76
2023-04-06T02:49:21.932Z,92.03
2023-04-06T02:51:48.784Z,92.38
2023-04-06T02:54:15.212Z,92.80
2023-04-06T02:56:41.642Z,92.41
2023-04-06T02:59:08.345Z,92.14
2023-04-06T03:01:35.328Z,92.30
2023-04-06T03:04:01.809Z,92.55
2023-04-06T03:06:28.255Z,91.61
2023-04-06T03:08:54.716Z,91.68
2023-04-06T03:11:21.675Z,92.31
2023-04-06T03:13:48.115Z,92.30
2023-04-06T03:16:14.639Z,92.69
2023-04-06T03:18:41.238Z,92.49
2023-04-06T03:21:07.622Z,93.08
2023-04-06T03:23:34.237Z,92.86
2023-04-06T03:26:02.702Z,92.13
2023-04-06T03:28:29.270Z,92.63
2023-04-06T03:30:56.026Z,92.33
2023-04-06T03:33:22.563Z,92.12
2023-04-06T03:35:48.982Z,91.91
2023-04-06T03:38:15.628Z,91.26
2023-04-06T03:40:42.388Z,92.11
2023-04-06T03:43:08.887Z,92.01
2023-04-06T03:45:35.610Z,92.56
2023-04-06T03:48:02.124Z,92.83
2023-04-06T03:50:28.559Z,93.00
2023-04-06T03:52:55.088Z,92.55
2023-04-06T03:55:21.474Z,93.45
2023-04-06T03:57:47.924Z,93.02
2023-04-06T04:00:14.760Z,93.08
2023-04-06T04:02:41.332Z,92.31
2023-04-06T04:05:08.208Z,92.07
2023-04-06T04:07:34.691Z,93.63
2023-04-06T04:10:01.156Z,93.03
2023-04-06T04:12:27.563Z,93.06
2023-04-06T04:14:54.108Z,93.14
2023-04-06T04:17:21.075Z,93.36
2023-04-06T04:19:47.533Z,93.69
2023-04-06T04:22:14.006Z,94.06
2023-04-06T04:24:40.571Z,94.19
2023-04-06T04:27:07.067Z,93.24
2023-04-06T04:29:33.594Z,93.76
2023-04-06T04:32:00.206Z,93.35
2023-04-06T04:34:26.971Z,93.38
2023-04-06T04:36:53.668Z,90.52
2023-04-06T04:39:20.222Z,91.81
2023-04-06T04:41:46.753Z,92.49
2023-04-06T04:44:13.225Z,92.60
2023-04-06T04:46:40.158Z,92.32
2023-04-06T04:49:06.683Z,92.93
2023-04-06T04:51:33.705Z,93.08
2023-04-06T04:54:00.327Z,93.12
2023-04-06T04:56:28.497Z,93.45
2023-04-06T04:58:55.170Z,93.33
2023-04-06T05:01:21.798Z,93.36
2023-04-06T05:03:48.396Z,93.92
2023-04-06T05:06:14.932Z,93.36
2023-04-06T05:08:42.207Z,93.10
2023-04-06T05:11:09.257Z,93.45
2023-04-06T05:13:35.740Z,93.77
2023-04-06T05:16:02.300Z,93.17
2023-04-06T05:18:28.996Z,92.87
2023-04-06T05:20:55.630Z,91.87
2023-04-06T05:23:22.050Z,90.28
2023-04-06T05:25:48.539Z,88.18
2023-04-06T05:28:16.837Z,87.57
2023-04-06T05:30:44.276Z,88.33
2023-04-06T05:33:11.750Z,86.76
2023-04-06T05:35:38.323Z,86.51
2023-04-06T05:38:07.005Z,86.94
2023-04-06T05:40:33.423Z,86.41
2023-04-06T05:42:59.873Z,86.95
2023-04-06T05:45:26.294Z,85.56
2023-04-06T05:47:52.831Z,85.52
2023-04-06T05:50:19.480Z,85.91
2023-04-06T05:52:47.357Z,85.18
2023-04-06T05:55:13.848Z,87.02
2023-04-06T05:57:40.471Z,87.63
2023-04-06T06:00:09.810Z,87.65
2023-04-06T06:02:36.553Z,88.96
2023-04-06T06:05:07.715Z,89.03
2023-04-06T06:07:34.166Z,89.95
2023-04-06T06:10:00.600Z,89.27
2023-04-06T06:12:27.147Z,88.83
2023-04-06T06:14:53.575Z,88.05
2023-04-06T06:17:20.210Z,89.59
2023-04-06T06:19:46.715Z,87.88
2023-04-06T06:22:13.125Z,88.36
2023-04-06T06:24:39.500Z,88.85
2023-04-06T06:27:06.093Z,87.86
2023-04-06T06:29:32.535Z,89.30
2023-04-06T06:31:59.149Z,89.08
2023-04-06T06:34:26.365Z,87.84
2023-04-06T06:36:52.942Z,87.68
2023-04-06T06:39:19.491Z,87.78
2023-04-06T06:41:46.043Z,87.79
2023-04-06T06:44:12.518Z,88.14
2023-04-06T06:46:38.957Z,86.71
2023-04-06T06:49:05.423Z,85.51
2023-04-06T06:51:31.876Z,87.23
2023-04-06T06:53:58.469Z,86.56
2023-04-06T06:56:25.021Z,86.67
2023-04-06T06:58:51.569Z,86.81
2023-04-06T07:01:18.640Z,86.04
2023-04-06T07:03:45.419Z,85.97
2023-04-06T07:06:11.953Z,87.57
2023-04-06T07:08:38.490Z,85.74
2023-04-06T07:11:05.175Z,86.85
2023-04-06T07:13:31.622Z,86.81
2023-04-06T07:15:58.050Z,86.09
2023-04-06T07:18:24.617Z,87.44
2023-04-06T07:20:51.033Z,87.17
2023-04-06T07:23:17.491Z,84.42
2023-04-06T07:25:43.968Z,86.28
2023-04-06T07:28:10.467Z,86.08
2023-04-06T07:30:38.206Z,84.59
2023-04-06T07:33:05.305Z,85.06
2023-04-06T07:35:32.077Z,83.92
2023-04-06T07:37:58.702Z,84.53
2023-04-06T07:40:27.098Z,83.08
2023-04-06T07:42:55.228Z,81.34
2023-04-06T07:45:22.702Z,80.22
2023-04-06T07:47:49.366Z,78.98
2023-04-06T07:50:15.988Z,78.67
2023-04-06T07:52:42.620Z,78.65
2023-04-06T07:55:09.360Z,78.14
2023-04-06T07:57:35.957Z,77.92
2023-04-06T08:00:02.542Z,76.98
2023-04-06T08:02:29.160Z,76.89
2023-04-06T08:04:55.851Z,76.48
2023-04-06T08:07:22.351Z,75.53
2023-04-06T08:09:48.827Z,73.89
2023-04-06T08:12:15.422Z,72.89
2023-04-06T08:14:42.155Z,68.53
2023-04-06T08:17:08.736Z,67.13
2023-04-06T08:19:35.310Z,65.46
2023-04-06T08:22:01.755Z,65.09
2023-04-06T08:24:28.211Z,66.07
2023-04-06T08:26:54.607Z,62.25
2023-04-06T08:29:21.079Z,61.58
2023-04-06T08:31:47.494Z,63.44
2023-04-06T08:34:14.585Z,62.98
2023-04-06T08:36:42.363Z,60.04
2023-04-06T08:39:08.877Z,61.54
2023-04-06T08:41:35.504Z,59.29
2023-04-06T08:44:03.332Z,57.01
2023-04-06T08:46:31.507Z,58.74
2023-04-06T08:49:02.679Z,56.94
2023-04-06T08:51:31.255Z,57.37
2023-04-06T08:53:59.197Z,56.37
2023-04-06T08:56:27.207Z,59.03
2023-04-06T08:58:55.928Z,58.55
2023-04-06T09:01:26.533Z,60.83
2023-04-06T09:03:59.587Z,58.80
2023-04-06T09:06:30.082Z,56.66
2023-04-06T09:08:57.587Z,56.82
2023-04-06T09:11:24.140Z,56.53
2023-04-06T09:13:55.255Z,55.57
2023-04-06T09:16:22.250Z,57.35
2023-04-06T09:18:49.406Z,55.93
2023-04-06T09:21:18.627Z,54.71
2023-04-06T09:23:45.486Z,54.06
2023-04-06T09:26:19.322Z,54.47
2023-04-06T09:28:51.042Z,54.47
2023-04-06T09:31:26.843Z,53.82
2023-04-06T09:33:54.062Z,54.97
2023-04-06T09:36:21.311Z,55.59
2023-04-06T09:38:56.178Z,54.73
2023-04-06T09:41:30.607Z,54.88
2023-04-06T09:44:14.151Z,55.83
2023-04-06T09:46:59.868Z,55.32
2023-04-06T09:49:33.411Z,53.91
2023-04-06T09:52:01.635Z,53.36
2023-04-06T09:54:32.385Z,52.07
2023-04-06T09:57:19.191Z,52.88
2023-04-06T09:59:51.585Z,54.26
2023-04-06T10:02:35.988Z,52.38
2023-04-06T10:05:17.644Z,52.39
2023-04-06T10:10:23.495Z,53.01
2023-04-06T10:12:50.762Z,54.08
2023-04-06T10:15:21.002Z,55.16
2023-04-06T10:17:49.344Z,54.57
2023-04-06T10:20:22.718Z,51.76
2023-04-06T10:23:15.196Z,51.35
2023-04-06T10:25:56.700Z,49.69
2023-04-06T10:28:24.306Z,49.44
2023-04-06T10:30:57.343Z,51.47
2023-04-06T10:33:23.819Z,50.28
2023-04-06T10:35:50.317Z,50.88
2023-04-06T10:38:21.056Z,49.80
2023-04-06T10:40:50.724Z,48.71
2023-04-06T10:43:22.116Z,49.29
2023-04-06T10:45:57.184Z,49.46
2023-04-06T10:48:24.848Z,49.28
2023-04-06T10:50:53.039Z,48.16
2023-04-06T10:53:27.681Z,50.41
2023-04-06T10:55:56.761Z,48.81
2023-04-06T10:58:27.536Z,47.64
2023-04-06T11:00:55.238Z,45.29
2023-04-06T11:03:21.979Z,46.79
2023-04-06T11:05:51.952Z,44.84
2023-04-06T11:08:32.218Z,43.66
2023-04-06T11:11:16.229Z,44.41
2023-04-06T11:13:44.909Z,44.58
2023-04-06T11:16:19.270Z,45.42
2023-04-06T11:19:01.707Z,44.67
2023-04-06T11:21:48.230Z,42.55
2023-04-06T11:24:17.758Z,40.18
2023-04-06T11:26:52.072Z,39.83
2023-04-06T11:29:21.289Z,37.60
2023-04-06T11:31:52.643Z,37.97
2023-04-06T11:34:21.722Z,39.28
2023-04-06T11:36:49.780Z,38.64
2023-04-06T11:39:21.674Z,36.80
2023-04-06T11:41:52.067Z,36.45
2023-04-06T11:44:35.635Z,37.71
2023-04-06T11:47:03.769Z,37.52
2023-04-06T11:49:31.674Z,37.28
2023-04-06T11:51:59.135Z,36.04
2023-04-06T11:54:36.651Z,36.62
2023-04-06T11:57:04.716Z,35.95
2023-04-06T11:59:31.795Z,36.04
2023-04-06T12:01:59.093Z,36.10
2023-04-06T12:04:25.830Z,36.73
2023-04-06T12:06:52.267Z,36.17
2023-04-06T12:09:19.175Z,36.81
2023-04-06T12:11:45.608Z,35.45
2023-04-06T12:14:13.367Z,36.50
2023-04-06T12:16:40.824Z,35.05
2023-04-06T12:19:07.603Z,35.63
2023-04-06T12:21:36.234Z,35.80
2023-04-06T12:24:02.680Z,36.92
2023-04-06T12:26:29.357Z,35.91
2023-04-06T12:28:55.939Z,36.91
2023-04-06T12:31:23.680Z,37.43
2023-04-06T12:33:51.311Z,37.09
2023-04-06T12:36:20.152Z,37.33
2023-04-06T12:38:49.096Z,36.09
2023-04-06T12:41:15.936Z,36.06
2023-04-06T12:43:43.514Z,35.19
2023-04-06T12:46:11.057Z,35.51
2023-04-06T12:48:38.047Z,35.84
2023-04-06T12:51:06.363Z,35.83
2023-04-06T12:53:34.189Z,36.09
2023-04-06T12:56:01.532Z,36.15
2023-04-06T12:58:28.750Z,35.65
2023-04-06T13:00:55.888Z,36.52
2023-04-06T13:03:23.351Z,35.52
2023-04-06T13:05:51.826Z,35.57
2023-04-06T13:08:20.620Z,36.18
2023-04-06T13:10:54.514Z,36.68
2023-04-06T13:13:26.510Z,36.71
2023-04-06T13:15:53.910Z,35.88
2023-04-06T13:18:21.038Z,36.25
2023-04-06T13:20:48.752Z,36.63
2023-04-06T13:23:15.788Z,36.25
2023-04-06T13:25:42.408Z,35.86
2023-04-06T13:28:09.622Z,35.98
2023-04-06T13:30:36.664Z,36.43
2023-04-06T13:33:03.485Z,36.82
2023-04-06T13:35:29.976Z,37.05
2023-04-06T13:37:56.400Z,35.83
2023-04-06T13:40:22.862Z,36.63
2023-04-06T13:42:49.330Z,36.89
2023-04-06T13:45:16.231Z,37.54
2023-04-06T13:47:42.661Z,37.74
2023-04-06T13:50:09.435Z,38.16
2023-04-06T13:52:37.185Z,37.66
2023-04-06T13:55:03.735Z,37.29
2023-04-06T13:57:30.996Z,37.13
2023-04-06T13:59:57.380Z,37.45
2023-04-06T14:02:28.230Z,37.40
2023-04-06T14:04:55.288Z,38.52
2023-04-06T14:07:23.555Z,37.96
2023-04-06T14:09:51.164Z,38.31
2023-04-06T14:12:17.557Z,38.56
2023-04-06T14:14:43.997Z,38.12
2023-04-06T14:17:10.673Z,38.53
2023-04-06T14:19:37.161Z,38.56
2023-04-06T14:22:03.714Z,37.84
2023-04-06T14:24:37.811Z,37.85
2023-04-06T14:27:04.781Z,38.48
2023-04-06T14:29:31.141Z,38.62
2023-04-06T14:32:00.830Z,38.30
2023-04-06T14:34:28.026Z,38.82
2023-04-06T14:36:54.504Z,38.15
2023-04-06T14:39:21.417Z,38.99
2023-04-06T14:41:49.806Z,39.49
2023-04-06T14:44:17.476Z,38.76
2023-04-06T14:46:44.038Z,39.60
2023-04-06T14:49:10.632Z,39.58
2023-04-06T14:51:37.072Z,38.74
2023-04-06T14:54:04.072Z,39.47
2023-04-06T14:56:32.121Z,39.73
2023-04-06T14:58:59.941Z,38.87
2023-04-06T15:01:26.413Z,38.31
2023-04-06T15:03:56.176Z,38.91
2023-04-06T15:06:22.653Z,39.71
2023-04-06T15:08:49.936Z,39.28
2023-04-06T15:11:16.681Z,40.37
2023-04-06T15:13:43.069Z,39.31
2023-04-06T15:16:09.600Z,39.92
2023-04-06T15:18:36.460Z,40.03
2023-04-06T15:21:03.510Z,41.54
2023-04-06T15:23:31.045Z,42.15
2023-04-06T15:25:58.620Z,43.03
2023-04-06T15:28:25.273Z,43.05
2023-04-06T15:30:51.997Z,42.58
2023-04-06T15:33:21.276Z,43.10
2023-04-06T15:35:47.823Z,43.93
2023-04-06T15:38:14.467Z,43.58
2023-04-06T15:40:46.066Z,43.64
2023-04-06T15:43:13.500Z,44.20
2023-04-06T15:45:41.625Z,44.84
2023-04-06T15:48:08.737Z,44.67
2023-04-06T15:50:36.021Z,45.16
2023-04-06T15:53:02.515Z,45.69
2023-04-06T15:55:29.022Z,45.41
2023-04-06T15:57:55.420Z,46.15
2023-04-06T16:00:22.315Z,46.08
2023-04-06T16:02:49.003Z,45.63
2023-04-06T16:05:15.656Z,45.89
2023-04-06T16:07:42.977Z,46.13
2023-04-06T16:10:10.023Z,46.37
2023-04-06T16:12:36.451Z,46.60
2023-04-06T16:15:02.986Z,47.42
2023-04-06T16:17:29.532Z,48.15
2023-04-06T16:19:56.126Z,48.64
2023-04-06T16:22:22.526Z,48.80
2023-04-06T16:24:48.975Z,50.59
2023-04-06T16:27:15.811Z,50.63
2023-04-06T16:29:42.356Z,50.29
2023-04-06T16:32:12.173Z,51.03
2023-04-06T16:34:38.762Z,51.41
2023-04-06T16:37:05.250Z,52.16
2023-04-06T16:39:31.731Z,51.42
2023-04-06T16:41:58.297Z,51.91
2023-04-06T16:44:24.692Z,51.67
2023-04-06T16:46:51.147Z,52.55
2023-04-06T16:49:19.345Z,53.69
2023-04-06T16:51:45.907Z,52.96
2023-04-06T16:54:12.378Z,53.41
2023-04-06T16:56:38.797Z,54.82
2023-04-06T16:59:08.189Z,55.21
2023-04-06T17:01:34.822Z,55.06
2023-04-06T17:04:02.052Z,55.54
2023-04-06T17:06:28.703Z,55.59
2023-04-06T17:08:55.297Z,55.69
2023-04-06T17:11:27.752Z,57.06
2023-04-06T17:13:55.474Z,57.35
2023-04-06T17:16:22.084Z,57.98
2023-04-06T17:18:48.533Z,59.04
2023-04-06T17:21:16.855Z,60.65
2023-04-06T17:23:44.442Z,61.32
2023-04-06T17:26:10.986Z,62.91
2023-04-06T17:28:42.499Z,63.20
2023-04-06T17:31:10.867Z,64.45
2023-04-06T17:33:38.891Z,67.03
2023-04-06T17:36:06.505Z,67.64
2023-04-06T17:38:33.005Z,69.21
2023-04-06T17:41:01.210Z,71.08
2023-04-06T17:43:27.636Z,73.34
2023-04-06T17:45:54.030Z,75.21
2023-04-06T17:48:20.541Z,76.70
2023-04-06T17:50:47.047Z,80.46
2023-04-06T17:53:13.502Z,80.01
2023-04-06T17:55:39.900Z,81.81
2023-04-06T17:58:06.513Z,82.45
2023-04-06T18:00:33.138Z,83.14
2023-04-06T18:02:59.684Z,84.72
2023-04-06T18:05:29.255Z,86.40
2023-04-06T18:07:55.845Z,86.06
2023-04-06T18:10:23.194Z,87.47
2023-04-06T18:12:49.882Z,88.17
2023-04-06T18:15:16.929Z,88.72
2023-04-06T18:17:44.564Z,92.04
2023-04-06T18:20:13.375Z,92.18
2023-04-06T18:22:41.484Z,92.12
2023-04-06T18:25:08.258Z,91.93
2023-04-06T18:27:34.737Z,93.14
2023-04-06T18:30:01.228Z,92.64
2023-04-06T18:32:30.572Z,93.50
2023-04-06T18:34:57.755Z,91.97
2023-04-06T18:37:25.389Z,94.22
2023-04-06T18:39:53.268Z,92.72
2023-04-06T18:42:19.965Z,95.58
2023-04-06T18:44:46.877Z,96.12
2023-04-06T18:47:13.394Z,96.35
2023-04-06T18:49:39.857Z,96.32
2023-04-06T18:52:06.735Z,96.71
2023-04-06T18:54:33.285Z,96.68
2023-04-06T18:56:59.674Z,96.49
2023-04-06T18:59:30.047Z,95.87
2023-04-06T19:01:56.602Z,97.58
2023-04-06T19:04:23.368Z,97.38
2023-04-06T19:06:49.888Z,98.25
2023-04-06T19:09:16.392Z,97.55
2023-04-06T19:11:42.815Z,97.98
2023-04-06T19:14:09.257Z,96.68
2023-04-06T19:16:40.836Z,97.80
2023-04-06T19:19:07.531Z,98.01
2023-04-06T19:21:33.932Z,97.54
2023-04-06T19:24:00.531Z,99.43
2023-04-06T19:26:28.058Z,98.65
2023-04-06T19:28:55.283Z,98.87
2023-04-06T19:31:22.034Z,99.07
2023-04-06T19:33:48.611Z,98.98
2023-04-06T19:36:16.044Z,99.59
2023-04-06T19:38:42.645Z,98.55
2023-04-06T19:41:09.439Z,99.31
2023-04-06T19:43:35.876Z,99.69
2023-04-06T19:46:03.134Z,100.00
2023-04-06T19:48:29.918Z,99.74
2023-04-06T19:50:56.263Z,99.74
2023-04-06T19:53:22.983Z,100.00
2023-04-06T19:55:50.011Z,100.00
2023-04-06T19:58:16.663Z,100.00
2023-04-06T20:00:43.035Z,100.00
2023-04-06T20:03:09.702Z,100.00
2023-04-06T20:05:36.329Z,100.00
2023-04-06T20:08:02.802Z,100.00
2023-04-06T20:10:29.205Z,100.00
2023-04-06T20:12:55.702Z,100.00
2023-04-06T20:15:23.035Z,100.00
2023-04-06T20:17:49.624Z,100.00
2023-04-06T20:20:16.100Z,100.00
2023-04-06T20:22:42.534Z,100.00
2023-04-06T20:25:10.943Z,100.00
2023-04-06T20:27:37.357Z,100.00
2023-04-06T20:30:04.673Z,100.00
2023-04-06T20:32:31.594Z,100.00
2023-04-06T20:34:58.008Z,100.00
2023-04-06T20:37:24.741Z,100.00
2023-04-06T20:39:51.411Z,100.00
2023-04-06T20:42:18.139Z,100.00
2023-04-06T20:44:44.610Z,100.00
2023-04-06T20:47:11.097Z,100.00
2023-04-06T20:49:37.446Z,100.00
2023-04-06T20:52:03.821Z,100.00
2023-04-06T20:54:30.327Z,100.00
2023-04-06T20:57:00.490Z,100.00
2023-04-06T20:59:27.855Z,100.00
2023-04-06T21:01:54.432Z,100.00
2023-04-06T21:04:22.495Z,100.00
2023-04-06T21:06:49.569Z,100.00
2023-04-06T21:09:16.473Z,100.00
2023-04-06T21:11:42.868Z,100.00
2023-04-06T21:14:09.431Z,100.00
2023-04-06T21:16:36.562Z,100.00
2023-04-06T21:19:03.149Z,100.00
2023-04-06T21:21:29.550Z,100.00
2023-04-06T21:23:56.795Z,100.00
2023-04-06T21:26:23.170Z,100.00
2023-04-06T21:28:49.563Z,100.00
2023-04-06T21:31:16.635Z,100.00
2023-04-06T21:33:43.138Z,100.00
2023-04-06T21:36:09.700Z,100.00
2023-04-06T21:38:36.258Z,100.00
2023-04-06T21:41:02.704Z,100.00
2023-04-06T21:43:29.238Z,100.00
2023-04-06T21:45:55.685Z,100.00
2023-04-06T21:48:22.150Z,100.00
2023-04-06T21:50:48.518Z,100.00
2023-04-06T21:53:14.978Z,100.00
2023-04-06T21:55:45.378Z,100.00
2023-04-06T21:58:12.298Z,100.00
2023-04-06T22:00:39.621Z,100.00
2023-04-06T22:03:06.434Z,100.00
2023-04-06T22:05:33.360Z,100.00
2023-04-06T22:08:02.130Z,100.00
2023-04-06T22:10:29.232Z,100.00
2023-04-06T22:12:55.843Z,100.00
2023-04-06T22:15:22.302Z,100.00
2023-04-06T22:17:48.672Z,100.00
2023-04-06T22:20:15.529Z,100.00
2023-04-06T22:22:42.115Z,100.00
2023-04-06T22:25:08.944Z,100.00
2023-04-06T22:27:35.510Z,100.00
2023-04-06T22:30:02.540Z,100.00
2023-04-06T22:32:29.142Z,100.00
2023-04-06T22:34:55.776Z,100.00
2023-04-06T22:37:22.201Z,100.00
2023-04-06T22:39:48.573Z,100.00
2023-04-06T22:42:14.979Z,100.00
2023-04-06T22:44:41.491Z,100.00
2023-04-06T22:47:07.980Z,100.00
2023-04-06T22:49:34.377Z,100.00
2023-04-06T22:52:00.801Z,100.00
2023-04-06T22:54:27.363Z,100.00
2023-04-06T22:56:54.131Z,100.00
2023-04-06T22:59:20.657Z,100.00
2023-04-06T23:01:47.192Z,100.00
2023-04-06T23:04:13.828Z,100.00
2023-04-06T23:06:40.514Z,100.00
2023-04-06T23:09:10.818Z,100.00
2023-04-06T23:11:37.240Z,100.00
2023-04-06T23:14:03.650Z,100.00
2023-04-06T23:16:30.043Z,100.00
2023-04-06T23:18:56.796Z,100.00
2023-04-06T23:21:23.190Z,100.00
2023-04-06T23:23:49.550Z,100.00
2023-04-06T23:26:16.032Z,100.00
2023-04-06T23:28:42.412Z,100.00
2023-04-06T23:31:08.814Z,100.00
2023-04-06T23:33:35.380Z,100.00
2023-04-06T23:36:01.850Z,100.00
2023-04-06T23:38:28.312Z,100.00
2023-04-06T23:40:54.661Z,100.00
2023-04-06T23:43:21.004Z,100.00
2023-04-06T23:45:47.331Z,100.00
2023-04-06T23:48:13.728Z,100.00
2023-04-06T23:50:40.848Z,100.00
2023-04-06T23:53:07.273Z,100.00
2023-04-06T23:55:33.698Z,100.00
2023-04-06T23:58:00.419Z,100.00
